QAC8837 YMML-OTHH
Flight info
| Callsign | QAC8837 |
|---|---|
| Flight time | N/A |
| Altitude | 32000 |
| Route | PEDNI H345 AD T20 ISMOR DCT 2633S12901E 2438S12646E 2215S12350E 20S121E 1708S11739E/N0496F340 DCT AUSGA DCT 1405S11358E DCT SAPDA L896 OBMAT M766 ODIRU/N0491F360 M766 KAT P570 DOTAT/N0485F380 P570 EMURU N563 SODEX/N0500F340 N563 UMIBU P899 TOVOX |
| Aircraft | B77L/H-SDE1E2E3FGHIJ2J3J4J5M1RWXY/LB1D1 |
Departure
| Time | 2026-05-01 13:12 |
|---|---|
| Airport | Melbourne Airport (YMML) |
Arrival
| Time | N/A |
|---|---|
| Airport | Hamad International Airport (OTHH) |
| Time | Latitude | Longitude | Altitude | Speed | Heading |
|---|---|---|---|---|---|
| 2026-05-01 12:56 | -37.67797 | 144.84784 | 373 ft | 0 kts | 171° |
| 2026-05-01 13:01 | -37.67761 | 144.84777 | 377 ft | 3 kts | 173° |
| 2026-05-01 13:02 | -37.67745 | 144.84775 | 376 ft | 1 kts | 181° |
| 2026-05-01 13:07 | -37.67829 | 144.84489 | 370 ft | 18 kts | 263° |
| 2026-05-01 13:07 | -37.67906 | 144.84401 | 370 ft | 18 kts | 176° |
| 2026-05-01 13:07 | -37.68032 | 144.84424 | 364 ft | 18 kts | 172° |
| 2026-05-01 13:08 | -37.68157 | 144.84451 | 365 ft | 18 kts | 172° |
| 2026-05-01 13:08 | -37.68284 | 144.84472 | 359 ft | 18 kts | 173° |
| 2026-05-01 13:08 | -37.68402 | 144.84424 | 359 ft | 18 kts | 214° |
| 2026-05-01 13:08 | -37.68508 | 144.84333 | 355 ft | 18 kts | 215° |
| 2026-05-01 13:09 | -37.68548 | 144.84257 | 354 ft | 0 kts | 256° |
| 2026-05-01 13:09 | -37.68549 | 144.84165 | 351 ft | 22 kts | 283° |
| 2026-05-01 13:09 | -37.68470 | 144.84076 | 357 ft | 13 kts | 354° |
| 2026-05-01 13:09 | -37.68458 | 144.84075 | 355 ft | 0 kts | 353° |
| 2026-05-01 13:11 | -37.68259 | 144.84039 | 358 ft | 71 kts | 352° |
| 2026-05-01 13:11 | -37.67489 | 144.83893 | 373 ft | 151 kts | 352° |
| 2026-05-01 13:12 | -37.66259 | 144.83682 | 693 ft | 192 kts | 354° |
| 2026-05-01 13:12 | -37.64886 | 144.83469 | 1425 ft | 204 kts | 354° |
| 2026-05-01 13:12 | -37.63482 | 144.83193 | 2484 ft | 203 kts | 354° |
| 2026-05-01 13:12 | -37.62102 | 144.82869 | 3685 ft | 201 kts | 353° |
| 2026-05-01 13:13 | -37.60725 | 144.82545 | 4731 ft | 204 kts | 352° |
| 2026-05-01 13:13 | -37.59267 | 144.82240 | 5416 ft | 223 kts | 353° |
| 2026-05-01 13:13 | -37.57693 | 144.81868 | 5647 ft | 238 kts | 338° |
| 2026-05-01 13:13 | -37.56352 | 144.80580 | 6127 ft | 251 kts | 313° |
| 2026-05-01 13:14 | -37.55399 | 144.78719 | 6803 ft | 257 kts | 299° |
| 2026-05-01 13:14 | -37.54782 | 144.76568 | 7400 ft | 265 kts | 291° |
| 2026-05-01 13:14 | -37.54282 | 144.74321 | 8075 ft | 267 kts | 290° |
| 2026-05-01 13:14 | -37.53801 | 144.72053 | 8796 ft | 268 kts | 290° |
| 2026-05-01 13:15 | -37.53313 | 144.69772 | 9458 ft | 271 kts | 289° |
| 2026-05-01 13:15 | -37.52823 | 144.67507 | 10095 ft | 274 kts | 289° |
| 2026-05-01 13:15 | -37.52301 | 144.65138 | 10438 ft | 290 kts | 289° |
| 2026-05-01 13:15 | -37.51732 | 144.62603 | 10593 ft | 311 kts | 289° |
| 2026-05-01 13:16 | -37.51117 | 144.59888 | 10763 ft | 333 kts | 289° |
| 2026-05-01 13:16 | -37.50523 | 144.57283 | 10949 ft | 352 kts | 289° |
| 2026-05-01 13:16 | -37.49838 | 144.54286 | 11417 ft | 363 kts | 289° |
| 2026-05-01 13:17 | -37.47678 | 144.44881 | 13352 ft | 379 kts | 289° |
| 2026-05-01 13:17 | -37.46935 | 144.41674 | 14011 ft | 384 kts | 289° |
| 2026-05-01 13:18 | -37.45417 | 144.35140 | 15226 ft | 392 kts | 289° |
| 2026-05-01 13:18 | -37.44649 | 144.31842 | 15889 ft | 394 kts | 289° |
| 2026-05-01 13:18 | -37.43874 | 144.28523 | 16533 ft | 397 kts | 289° |
| 2026-05-01 13:18 | -37.43092 | 144.25176 | 17117 ft | 401 kts | 289° |
| 2026-05-01 13:19 | -37.42302 | 144.21799 | 17779 ft | 403 kts | 289° |
| 2026-05-01 13:19 | -37.41509 | 144.18415 | 18480 ft | 404 kts | 290° |
| 2026-05-01 13:19 | -37.39907 | 144.11600 | 19594 ft | 409 kts | 289° |
| 2026-05-01 13:20 | -37.39097 | 144.08162 | 20144 ft | 411 kts | 289° |
| 2026-05-01 13:20 | -37.38282 | 144.04704 | 20711 ft | 413 kts | 289° |
| 2026-05-01 13:20 | -37.37462 | 144.01233 | 21239 ft | 416 kts | 289° |
| 2026-05-01 13:21 | -37.35805 | 143.94229 | 22314 ft | 420 kts | 289° |
| 2026-05-01 13:21 | -37.34968 | 143.90701 | 22854 ft | 423 kts | 289° |
| 2026-05-01 13:21 | -37.34125 | 143.87151 | 23377 ft | 425 kts | 289° |
| 2026-05-01 13:21 | -37.33276 | 143.83581 | 23873 ft | 427 kts | 289° |
| 2026-05-01 13:22 | -37.32422 | 143.79995 | 24302 ft | 430 kts | 289° |
| 2026-05-01 13:22 | -37.31560 | 143.76383 | 24709 ft | 433 kts | 289° |
| 2026-05-01 13:22 | -37.30693 | 143.72757 | 25144 ft | 435 kts | 289° |
| 2026-05-01 13:22 | -37.29821 | 143.69113 | 25577 ft | 437 kts | 289° |
| 2026-05-01 13:23 | -37.28942 | 143.65444 | 25985 ft | 440 kts | 289° |
| 2026-05-01 13:23 | -37.28058 | 143.61760 | 26354 ft | 443 kts | 289° |
| 2026-05-01 13:23 | -37.27164 | 143.58045 | 26740 ft | 446 kts | 289° |
| 2026-05-01 13:23 | -37.26266 | 143.54313 | 27119 ft | 448 kts | 289° |
| 2026-05-01 13:24 | -37.25359 | 143.50552 | 27496 ft | 451 kts | 289° |
| 2026-05-01 13:24 | -37.24460 | 143.46828 | 27876 ft | 454 kts | 289° |
| 2026-05-01 13:24 | -37.23541 | 143.43030 | 28242 ft | 456 kts | 289° |
| 2026-05-01 13:25 | -37.21673 | 143.35318 | 28943 ft | 461 kts | 289° |
| 2026-05-01 13:25 | -37.20736 | 143.31458 | 29278 ft | 464 kts | 289° |
| 2026-05-01 13:25 | -37.19803 | 143.27628 | 29576 ft | 467 kts | 289° |
| 2026-05-01 13:25 | -37.18772 | 143.23759 | 29884 ft | 468 kts | 292° |
| 2026-05-01 13:26 | -37.17629 | 143.19932 | 30199 ft | 469 kts | 293° |
| 2026-05-01 13:26 | -37.16438 | 143.16126 | 30565 ft | 468 kts | 294° |
| 2026-05-01 13:26 | -37.15241 | 143.12344 | 31003 ft | 465 kts | 294° |
| 2026-05-01 13:26 | -37.14066 | 143.08612 | 31429 ft | 462 kts | 293° |
| 2026-05-01 13:27 | -37.12889 | 143.04846 | 31817 ft | 460 kts | 293° |
| 2026-05-01 13:27 | -37.11731 | 143.01110 | 32090 ft | 461 kts | 293° |
| 2026-05-01 13:27 | -37.09409 | 142.93580 | 32138 ft | 462 kts | 293° |
| 2026-05-01 13:28 | -37.05975 | 142.82422 | 32144 ft | 456 kts | 293° |
| 2026-05-01 13:29 | -37.01398 | 142.67635 | 32140 ft | 456 kts | 293° |
| 2026-05-01 13:31 | -36.94494 | 142.45480 | 32128 ft | 456 kts | 293° |
| 2026-05-01 13:32 | -36.88707 | 142.27041 | 32127 ft | 456 kts | 293° |
| 2026-05-01 13:33 | -36.82902 | 142.08663 | 32108 ft | 454 kts | 294° |
| 2026-05-01 13:34 | -36.78269 | 141.94079 | 32102 ft | 453 kts | 294° |
| 2026-05-01 13:35 | -36.74777 | 141.83133 | 32097 ft | 452 kts | 294° |
| 2026-05-01 13:36 | -36.71276 | 141.72203 | 32098 ft | 453 kts | 294° |
| 2026-05-01 13:36 | -36.67766 | 141.61285 | 32085 ft | 452 kts | 294° |
| 2026-05-01 13:37 | -36.65421 | 141.54015 | 32083 ft | 452 kts | 294° |
| 2026-05-01 13:37 | -36.63071 | 141.46746 | 32080 ft | 452 kts | 294° |
| 2026-05-01 13:38 | -36.59538 | 141.35852 | 32081 ft | 452 kts | 294° |
| 2026-05-01 13:39 | -36.57177 | 141.28593 | 32077 ft | 453 kts | 295° |
| 2026-05-01 13:39 | -36.54825 | 141.21381 | 32071 ft | 453 kts | 295° |
| 2026-05-01 13:40 | -36.52452 | 141.14123 | 32070 ft | 453 kts | 295° |
| 2026-05-01 13:40 | -36.50072 | 141.06860 | 32069 ft | 454 kts | 295° |
| 2026-05-01 13:41 | -36.47688 | 140.99602 | 32059 ft | 454 kts | 295° |
| 2026-05-01 13:41 | -36.45296 | 140.92338 | 32055 ft | 454 kts | 295° |
| 2026-05-01 13:42 | -36.42899 | 140.85072 | 32057 ft | 455 kts | 295° |
| 2026-05-01 13:42 | -36.40470 | 140.77818 | 32045 ft | 454 kts | 298° |
| 2026-05-01 13:43 | -36.37331 | 140.71058 | 32048 ft | 451 kts | 307° |
| 2026-05-01 13:43 | -36.33480 | 140.64933 | 32044 ft | 450 kts | 310° |
| 2026-05-01 13:44 | -36.29587 | 140.58845 | 32036 ft | 451 kts | 310° |
| 2026-05-01 13:44 | -36.25711 | 140.52747 | 32034 ft | 450 kts | 310° |
| 2026-05-01 13:45 | -36.21865 | 140.46691 | 32030 ft | 450 kts | 310° |
| 2026-05-01 13:45 | -36.17993 | 140.40605 | 32043 ft | 449 kts | 310° |
| 2026-05-01 13:46 | -36.14126 | 140.34536 | 32022 ft | 448 kts | 310° |
| 2026-05-01 13:46 | -36.10270 | 140.28495 | 32018 ft | 447 kts | 310° |
| 2026-05-01 13:47 | -36.06413 | 140.22470 | 32017 ft | 446 kts | 310° |
| 2026-05-01 13:47 | -36.02557 | 140.16470 | 32015 ft | 446 kts | 310° |
| 2026-05-01 13:48 | -35.98697 | 140.10473 | 32004 ft | 447 kts | 310° |
| 2026-05-01 13:48 | -35.94827 | 140.04468 | 32016 ft | 447 kts | 310° |
| 2026-05-01 13:49 | -35.90947 | 139.98457 | 32012 ft | 448 kts | 310° |
| 2026-05-01 13:49 | -35.87055 | 139.92437 | 32014 ft | 449 kts | 310° |
| 2026-05-01 13:50 | -35.83161 | 139.86425 | 32001 ft | 449 kts | 311° |
| 2026-05-01 13:50 | -35.79264 | 139.80419 | 32003 ft | 448 kts | 311° |
| 2026-05-01 13:51 | -35.75368 | 139.74425 | 32000 ft | 448 kts | 311° |
| 2026-05-01 13:51 | -35.71481 | 139.68455 | 31991 ft | 446 kts | 311° |
| 2026-05-01 13:52 | -35.67603 | 139.62508 | 31993 ft | 445 kts | 311° |
| 2026-05-01 13:52 | -35.63734 | 139.56586 | 31982 ft | 443 kts | 311° |
| 2026-05-01 13:53 | -35.59874 | 139.50688 | 31998 ft | 443 kts | 311° |
| 2026-05-01 13:53 | -35.54094 | 139.41875 | 31984 ft | 444 kts | 311° |
| 2026-05-01 13:54 | -35.50210 | 139.35966 | 31981 ft | 445 kts | 311° |
| 2026-05-01 13:54 | -35.46323 | 139.30059 | 31971 ft | 445 kts | 311° |
| 2026-05-01 13:55 | -35.42431 | 139.24156 | 31972 ft | 445 kts | 311° |
| 2026-05-01 13:55 | -35.38537 | 139.18260 | 31974 ft | 445 kts | 311° |
| 2026-05-01 13:56 | -35.34640 | 139.12368 | 31978 ft | 445 kts | 311° |
| 2026-05-01 13:56 | -35.30744 | 139.06485 | 31973 ft | 445 kts | 311° |
| 2026-05-01 13:57 | -35.27502 | 139.01594 | 31969 ft | 445 kts | 311° |
| 2026-05-01 13:57 | -35.23596 | 138.95714 | 31963 ft | 445 kts | 311° |
| 2026-05-01 13:58 | -35.19685 | 138.89834 | 31955 ft | 445 kts | 311° |
| 2026-05-01 13:58 | -35.15771 | 138.83960 | 31964 ft | 446 kts | 312° |
| 2026-05-01 13:59 | -35.11839 | 138.78070 | 31969 ft | 448 kts | 312° |
| 2026-05-01 13:59 | -35.07897 | 138.72173 | 31948 ft | 449 kts | 312° |
| 2026-05-01 14:00 | -35.03941 | 138.66265 | 31961 ft | 450 kts | 312° |
| 2026-05-01 14:00 | -34.99978 | 138.60357 | 31941 ft | 451 kts | 312° |
| 2026-05-01 14:01 | -34.96009 | 138.54447 | 31942 ft | 449 kts | 312° |
| 2026-05-01 14:01 | -34.91780 | 138.48924 | 31939 ft | 443 kts | 318° |
| 2026-05-01 14:02 | -34.87378 | 138.43697 | 31974 ft | 441 kts | 317° |
| 2026-05-01 14:02 | -34.83018 | 138.38482 | 31946 ft | 438 kts | 317° |
| 2026-05-01 14:03 | -34.78684 | 138.33288 | 31937 ft | 436 kts | 317° |
| 2026-05-01 14:03 | -34.74365 | 138.28119 | 31934 ft | 435 kts | 317° |
| 2026-05-01 14:04 | -34.70046 | 138.22961 | 31929 ft | 436 kts | 317° |
| 2026-05-01 14:04 | -34.65719 | 138.17803 | 31934 ft | 436 kts | 316° |
| 2026-05-01 14:05 | -34.61386 | 138.12644 | 31923 ft | 437 kts | 316° |
| 2026-05-01 14:05 | -34.57046 | 138.07485 | 31922 ft | 437 kts | 316° |
| 2026-05-01 14:06 | -34.52703 | 138.02329 | 31919 ft | 437 kts | 316° |
| 2026-05-01 14:06 | -34.48355 | 137.97176 | 31925 ft | 437 kts | 316° |
| 2026-05-01 14:07 | -34.44002 | 137.92023 | 31927 ft | 437 kts | 316° |
| 2026-05-01 14:08 | -34.37542 | 137.84211 | 31913 ft | 438 kts | 315° |
| 2026-05-01 14:08 | -34.33315 | 137.78906 | 31927 ft | 438 kts | 314° |
| 2026-05-01 14:09 | -34.29076 | 137.73603 | 31925 ft | 439 kts | 315° |
| 2026-05-01 14:09 | -34.24822 | 137.68310 | 31905 ft | 439 kts | 315° |
| 2026-05-01 14:10 | -34.20589 | 137.63061 | 31908 ft | 439 kts | 315° |
| 2026-05-01 14:10 | -34.16327 | 137.57786 | 31909 ft | 438 kts | 314° |
| 2026-05-01 14:11 | -34.12068 | 137.52525 | 31905 ft | 438 kts | 314° |
| 2026-05-01 14:11 | -34.05687 | 137.44655 | 31901 ft | 437 kts | 314° |
| 2026-05-01 14:12 | -34.01438 | 137.39425 | 31908 ft | 437 kts | 314° |
| 2026-05-01 14:12 | -33.97188 | 137.34201 | 31907 ft | 436 kts | 314° |
| 2026-05-01 14:13 | -33.93631 | 137.29835 | 31891 ft | 436 kts | 314° |
| 2026-05-01 14:13 | -33.88698 | 137.23789 | 31901 ft | 435 kts | 314° |
| 2026-05-01 14:14 | -33.84456 | 137.18599 | 31885 ft | 435 kts | 314° |
| 2026-05-01 14:14 | -33.80216 | 137.13418 | 31896 ft | 435 kts | 314° |
| 2026-05-01 14:15 | -33.75974 | 137.08243 | 31888 ft | 434 kts | 314° |
| 2026-05-01 14:15 | -33.71738 | 137.03083 | 31897 ft | 433 kts | 314° |
| 2026-05-01 14:16 | -33.67504 | 136.97933 | 31903 ft | 433 kts | 314° |
| 2026-05-01 14:16 | -33.63270 | 136.92791 | 31891 ft | 433 kts | 314° |
| 2026-05-01 14:17 | -33.59038 | 136.87659 | 31897 ft | 432 kts | 314° |
| 2026-05-01 14:17 | -33.54820 | 136.82552 | 31911 ft | 432 kts | 314° |
| 2026-05-01 14:18 | -33.50580 | 136.77427 | 31889 ft | 432 kts | 314° |
| 2026-05-01 14:18 | -33.47061 | 136.73177 | 31895 ft | 432 kts | 314° |
| 2026-05-01 14:19 | -33.42136 | 136.67238 | 31898 ft | 432 kts | 314° |
| 2026-05-01 14:19 | -33.37895 | 136.62133 | 31905 ft | 432 kts | 314° |
| 2026-05-01 14:20 | -33.31529 | 136.54483 | 31918 ft | 432 kts | 314° |
| 2026-05-01 14:21 | -33.27284 | 136.49391 | 31898 ft | 432 kts | 314° |
| 2026-05-01 14:21 | -33.23039 | 136.44307 | 31902 ft | 432 kts | 314° |
| 2026-05-01 14:22 | -33.16673 | 136.36697 | 31901 ft | 432 kts | 314° |
| 2026-05-01 14:22 | -33.12434 | 136.31638 | 31896 ft | 430 kts | 314° |
| 2026-05-01 14:23 | -33.08204 | 136.26595 | 31895 ft | 429 kts | 314° |
| 2026-05-01 14:23 | -33.03979 | 136.21566 | 31895 ft | 429 kts | 314° |
| 2026-05-01 14:24 | -32.99757 | 136.16556 | 31911 ft | 428 kts | 314° |
| 2026-05-01 14:24 | -32.95539 | 136.11566 | 31887 ft | 427 kts | 314° |
| 2026-05-01 14:25 | -32.91328 | 136.06589 | 31891 ft | 426 kts | 314° |
| 2026-05-01 14:25 | -32.87128 | 136.01629 | 31900 ft | 425 kts | 314° |
| 2026-05-01 14:26 | -32.80830 | 135.94203 | 31891 ft | 425 kts | 314° |
| 2026-05-01 14:27 | -32.76630 | 135.89259 | 31897 ft | 425 kts | 314° |
| 2026-05-01 14:27 | -32.72417 | 135.84309 | 31895 ft | 426 kts | 314° |
| 2026-05-01 14:28 | -32.66092 | 135.76889 | 31914 ft | 427 kts | 314° |
| 2026-05-01 14:28 | -32.61865 | 135.71938 | 31898 ft | 427 kts | 314° |
| 2026-05-01 14:29 | -32.57627 | 135.66982 | 31882 ft | 428 kts | 314° |
| 2026-05-01 14:30 | -32.49180 | 135.57123 | 31921 ft | 427 kts | 314° |
| 2026-05-01 14:31 | -32.42825 | 135.49727 | 31892 ft | 426 kts | 314° |
| 2026-05-01 14:31 | -32.38595 | 135.44811 | 31889 ft | 426 kts | 314° |
| 2026-05-01 14:32 | -32.34376 | 135.39914 | 31900 ft | 425 kts | 314° |
| 2026-05-01 14:32 | -32.30157 | 135.35024 | 31895 ft | 425 kts | 314° |
| 2026-05-01 14:33 | -32.25939 | 135.30142 | 31889 ft | 425 kts | 314° |
| 2026-05-01 14:33 | -32.21715 | 135.25260 | 31889 ft | 425 kts | 314° |
| 2026-05-01 14:34 | -32.17492 | 135.20388 | 31872 ft | 424 kts | 314° |
| 2026-05-01 14:34 | -32.13269 | 135.15521 | 31878 ft | 424 kts | 314° |
| 2026-05-01 14:35 | -32.09049 | 135.10662 | 31897 ft | 424 kts | 314° |
| 2026-05-01 14:35 | -32.04818 | 135.05799 | 31888 ft | 425 kts | 314° |
| 2026-05-01 14:36 | -32.00581 | 135.00934 | 31889 ft | 425 kts | 314° |
| 2026-05-01 14:36 | -31.96339 | 134.96072 | 31885 ft | 426 kts | 314° |
| 2026-05-01 14:37 | -31.92098 | 134.91217 | 31876 ft | 425 kts | 314° |
| 2026-05-01 14:37 | -31.87862 | 134.86376 | 31881 ft | 424 kts | 314° |
| 2026-05-01 14:38 | -31.83639 | 134.81554 | 31880 ft | 423 kts | 314° |
| 2026-05-01 14:38 | -31.79419 | 134.76743 | 31862 ft | 422 kts | 314° |
| 2026-05-01 14:39 | -31.75208 | 134.71949 | 31871 ft | 421 kts | 314° |
| 2026-05-01 14:39 | -31.71003 | 134.67167 | 31874 ft | 420 kts | 314° |
| 2026-05-01 14:40 | -31.66801 | 134.62395 | 31880 ft | 420 kts | 314° |
| 2026-05-01 14:40 | -31.62603 | 134.57635 | 31871 ft | 420 kts | 314° |
| 2026-05-01 14:41 | -31.58408 | 134.52883 | 31869 ft | 419 kts | 314° |
| 2026-05-01 14:41 | -31.54242 | 134.48171 | 31865 ft | 419 kts | 314° |
| 2026-05-01 14:42 | -31.50048 | 134.43433 | 31868 ft | 419 kts | 314° |
| 2026-05-01 14:42 | -31.45851 | 134.38699 | 31871 ft | 419 kts | 314° |
| 2026-05-01 14:43 | -31.41647 | 134.33962 | 31862 ft | 420 kts | 314° |
| 2026-05-01 14:43 | -31.37442 | 134.29230 | 31857 ft | 419 kts | 314° |
| 2026-05-01 14:44 | -31.33924 | 134.25277 | 31861 ft | 418 kts | 314° |
| 2026-05-01 14:44 | -31.26942 | 134.17442 | 31869 ft | 419 kts | 314° |
| 2026-05-01 14:45 | -31.21327 | 134.11155 | 31859 ft | 417 kts | 314° |
| 2026-05-01 14:46 | -31.17135 | 134.06467 | 31866 ft | 417 kts | 314° |
| 2026-05-01 14:46 | -31.10874 | 133.99479 | 31864 ft | 417 kts | 313° |
| 2026-05-01 14:47 | -31.06685 | 133.94810 | 31866 ft | 416 kts | 313° |
| 2026-05-01 14:48 | -31.00406 | 133.87822 | 31872 ft | 416 kts | 313° |
| 2026-05-01 14:48 | -30.94137 | 133.80858 | 31883 ft | 415 kts | 313° |
| 2026-05-01 14:49 | -30.85781 | 133.71595 | 31854 ft | 415 kts | 313° |
| 2026-05-01 14:50 | -30.77435 | 133.62374 | 31907 ft | 413 kts | 313° |
| 2026-05-01 14:51 | -30.71168 | 133.55465 | 31854 ft | 414 kts | 313° |
| 2026-05-01 14:52 | -30.64913 | 133.48581 | 31876 ft | 412 kts | 313° |
| 2026-05-01 14:53 | -30.58673 | 133.41724 | 31903 ft | 412 kts | 313° |
| 2026-05-01 14:53 | -30.54507 | 133.37154 | 31870 ft | 412 kts | 313° |
| 2026-05-01 14:54 | -30.50351 | 133.32599 | 31888 ft | 411 kts | 313° |
| 2026-05-01 14:54 | -30.46193 | 133.28048 | 31885 ft | 411 kts | 313° |
| 2026-05-01 14:55 | -30.42042 | 133.23512 | 31887 ft | 410 kts | 312° |
| 2026-05-01 14:55 | -30.37894 | 133.18984 | 31891 ft | 409 kts | 312° |
| 2026-05-01 14:56 | -30.33752 | 133.14467 | 31887 ft | 409 kts | 312° |
| 2026-05-01 14:56 | -30.29613 | 133.09961 | 31892 ft | 408 kts | 312° |
| 2026-05-01 14:57 | -30.25478 | 133.05464 | 31886 ft | 407 kts | 312° |
| 2026-05-01 14:57 | -30.19295 | 132.98747 | 31891 ft | 406 kts | 312° |
| 2026-05-01 14:58 | -30.15175 | 132.94280 | 31892 ft | 406 kts | 312° |
| 2026-05-01 14:58 | -30.11053 | 132.89815 | 31892 ft | 406 kts | 312° |
| 2026-05-01 14:59 | -30.06929 | 132.85354 | 31895 ft | 406 kts | 312° |
| 2026-05-01 14:59 | -30.02830 | 132.80924 | 31889 ft | 407 kts | 312° |
| 2026-05-01 15:00 | -29.96635 | 132.74240 | 31889 ft | 406 kts | 312° |
| 2026-05-01 15:01 | -29.92508 | 132.69794 | 31894 ft | 406 kts | 312° |
| 2026-05-01 15:01 | -29.88381 | 132.65354 | 31886 ft | 406 kts | 312° |
| 2026-05-01 15:02 | -29.84258 | 132.60922 | 31908 ft | 405 kts | 313° |
| 2026-05-01 15:02 | -29.80134 | 132.56497 | 31887 ft | 405 kts | 312° |
| 2026-05-01 15:03 | -29.76012 | 132.52075 | 31907 ft | 405 kts | 313° |
| 2026-05-01 15:03 | -29.71885 | 132.47655 | 31905 ft | 405 kts | 313° |
| 2026-05-01 15:04 | -29.67764 | 132.43247 | 31901 ft | 404 kts | 312° |
| 2026-05-01 15:04 | -29.63653 | 132.38858 | 31916 ft | 404 kts | 313° |
| 2026-05-01 15:05 | -29.59536 | 132.34463 | 31922 ft | 404 kts | 313° |
| 2026-05-01 15:05 | -29.55411 | 132.30064 | 31875 ft | 405 kts | 312° |
| 2026-05-01 15:06 | -29.51289 | 132.25675 | 31917 ft | 404 kts | 312° |
| 2026-05-01 15:06 | -29.47168 | 132.21294 | 31921 ft | 404 kts | 312° |
| 2026-05-01 15:07 | -29.43043 | 132.16913 | 31929 ft | 405 kts | 313° |
| 2026-05-01 15:07 | -29.38913 | 132.12529 | 31904 ft | 404 kts | 312° |
| 2026-05-01 15:08 | -29.34788 | 132.08158 | 31925 ft | 403 kts | 312° |
| 2026-05-01 15:08 | -29.30668 | 132.03798 | 31932 ft | 403 kts | 312° |
| 2026-05-01 15:09 | -29.26551 | 131.99445 | 31937 ft | 403 kts | 312° |
| 2026-05-01 15:09 | -29.22433 | 131.95097 | 31929 ft | 402 kts | 312° |
| 2026-05-01 15:10 | -29.18321 | 131.90759 | 31933 ft | 402 kts | 312° |
| 2026-05-01 15:10 | -29.12159 | 131.84267 | 31942 ft | 401 kts | 312° |
| 2026-05-01 15:11 | -29.06026 | 131.77818 | 31935 ft | 401 kts | 312° |
| 2026-05-01 15:12 | -29.01923 | 131.73509 | 31952 ft | 401 kts | 312° |
| 2026-05-01 15:12 | -28.95758 | 131.67043 | 31943 ft | 401 kts | 312° |
| 2026-05-01 15:14 | -28.85487 | 131.56297 | 31959 ft | 400 kts | 311° |
| 2026-05-01 15:14 | -28.79328 | 131.49866 | 31963 ft | 401 kts | 312° |
| 2026-05-01 15:15 | -28.71127 | 131.41323 | 31962 ft | 398 kts | 311° |
| 2026-05-01 15:16 | -28.62988 | 131.32861 | 31974 ft | 397 kts | 311° |
| 2026-05-01 15:18 | -28.52775 | 131.22264 | 31968 ft | 398 kts | 311° |
| 2026-05-01 15:19 | -28.44828 | 131.13560 | 31964 ft | 395 kts | 309° |
| 2026-05-01 15:19 | -28.39053 | 131.06864 | 31976 ft | 396 kts | 309° |
| 2026-05-01 15:20 | -28.33239 | 131.00196 | 31977 ft | 396 kts | 309° |
| 2026-05-01 15:21 | -28.29358 | 130.95767 | 31959 ft | 396 kts | 309° |
| 2026-05-01 15:21 | -28.25475 | 130.91345 | 31979 ft | 395 kts | 309° |
| 2026-05-01 15:22 | -28.19648 | 130.84717 | 31983 ft | 396 kts | 309° |
| 2026-05-01 15:22 | -28.15764 | 130.80305 | 31979 ft | 395 kts | 309° |
| 2026-05-01 15:23 | -28.11884 | 130.75903 | 31976 ft | 394 kts | 309° |
| 2026-05-01 15:23 | -28.08009 | 130.71510 | 31988 ft | 394 kts | 309° |
| 2026-05-01 15:24 | -28.04134 | 130.67121 | 31986 ft | 394 kts | 309° |
| 2026-05-01 15:24 | -28.00254 | 130.62732 | 31986 ft | 394 kts | 309° |
| 2026-05-01 15:25 | -27.96370 | 130.58344 | 31981 ft | 394 kts | 309° |
| 2026-05-01 15:25 | -27.92481 | 130.53954 | 31981 ft | 396 kts | 309° |
| 2026-05-01 15:26 | -27.88580 | 130.49556 | 31989 ft | 397 kts | 309° |
| 2026-05-01 15:26 | -27.84695 | 130.45180 | 31992 ft | 398 kts | 309° |
| 2026-05-01 15:27 | -27.80774 | 130.40769 | 31974 ft | 397 kts | 309° |
| 2026-05-01 15:28 | -27.74894 | 130.34163 | 31994 ft | 398 kts | 309° |
| 2026-05-01 15:28 | -27.70965 | 130.29755 | 31992 ft | 398 kts | 309° |
| 2026-05-01 15:29 | -27.65064 | 130.23143 | 31963 ft | 399 kts | 309° |
| 2026-05-01 15:30 | -27.57849 | 130.15073 | 31996 ft | 399 kts | 309° |
| 2026-05-01 15:31 | -27.45985 | 130.01836 | 32026 ft | 401 kts | 308° |
| 2026-05-01 15:32 | -27.38024 | 129.92978 | 31998 ft | 403 kts | 309° |
| 2026-05-01 15:34 | -27.26044 | 129.79685 | 32036 ft | 405 kts | 309° |